Time;durP1;ratioP1;P1;durP2;ratioP2;P2;SDS_P1;SDS_P2;PMS_P1;PMS_P2;Temp;Humidity;BMP_temperature;BMP_pressure;BME280_temperature;BME280_humidity;BME280_pressure;Samples;Min_cycle;Max_cycle;Signal;HPM_P1;HPM_P2
2021/10/31 00:00:34;;;;;;;31.73;17.48;;;;;;;2.42;70.47;94102.94;5082001;28;20016;-49
2021/10/31 00:02:59;;;;;;;23.63;16.77;;;;;;;2.36;70.02;94097.41;5081810;28;20031;-47
2021/10/31 00:05:25;;;;;;;22.85;14.95;;;;;;;2.15;70.12;94090.50;5083074;28;20085;-47
2021/10/31 00:07:51;;;;;;;26.23;16.17;;;;;;;2.07;71.44;94084.00;5079948;28;20587;-49
2021/10/31 00:10:17;;;;;;;24.90;16.60;;;;;;;2.14;70.39;94089.03;5081508;28;20107;-47
2021/10/31 00:12:42;;;;;;;25.70;15.70;;;;;;;2.27;69.92;94092.16;5081650;28;20028;-49
2021/10/31 00:15:09;;;;;;;22.42;15.05;;;;;;;2.21;69.78;94086.63;5079857;28;20082;-48
2021/10/31 00:17:34;;;;;;;24.33;15.63;;;;;;;2.20;70.13;94084.38;5081503;28;20024;-52
2021/10/31 00:20:00;;;;;;;27.17;15.75;;;;;;;1.94;70.56;94086.31;5081088;28;20459;-50
2021/10/31 00:22:25;;;;;;;44.83;25.50;;;;;;;2.07;70.36;94086.72;5079944;28;20023;-52
2021/10/31 00:24:51;;;;;;;46.50;25.10;;;;;;;2.24;68.90;94087.66;5080293;28;20020;-49
2021/10/31 00:27:16;;;;;;;43.00;25.33;;;;;;;2.28;68.75;94083.47;5083561;28;20023;-49
2021/10/31 00:29:42;;;;;;;45.08;26.70;;;;;;;2.29;68.69;94081.50;5080289;28;20020;-50
2021/10/31 00:32:07;;;;;;;42.53;24.08;;;;;;;2.36;68.01;94083.06;5081832;28;20417;-49
2021/10/31 00:34:33;;;;;;;48.88;27.02;;;;;;;1.99;68.86;94042.06;5082088;28;20509;-49
2021/10/31 00:36:58;;;;;;;42.97;24.30;;;;;;;2.23;68.67;94076.00;5080256;28;20031;-49
2021/10/31 00:39:24;;;;;;;55.63;31.45;;;;;;;2.00;69.74;94079.72;5081356;28;20017;-48
2021/10/31 00:41:49;;;;;;;62.13;30.60;;;;;;;2.00;69.40;94076.22;5078588;28;20021;-48
2021/10/31 00:44:15;;;;;;;45.53;25.42;;;;;;;1.91;70.15;94070.94;5081020;28;20133;-47
2021/10/31 00:46:41;;;;;;;44.42;23.30;;;;;;;1.97;69.56;94077.94;5080056;28;20023;-50
2021/10/31 00:49:06;;;;;;;48.42;25.25;;;;;;;1.92;69.95;94072.44;5081579;28;20037;-49
2021/10/31 00:51:32;;;;;;;49.03;27.70;;;;;;;1.79;70.54;94058.41;5088461;28;20020;-47
2021/10/31 00:54:00;;;;;;;44.95;25.08;;;;;;;1.64;70.51;94061.22;5072664;28;20044;-49
2021/10/31 00:56:26;;;;;;;44.25;24.23;;;;;;;1.89;70.11;94057.03;5091195;28;20024;-48
2021/10/31 00:58:52;;;;;;;40.28;24.23;;;;;;;1.74;69.87;94064.53;5090765;28;20079;-47
2021/10/31 01:01:19;;;;;;;40.78;24.77;;;;;;;1.77;70.15;94064.34;5090688;28;20066;-51
2021/10/31 01:03:45;;;;;;;31.38;18.77;;;;;;;1.63;69.85;94034.47;5090956;28;20047;-51
2021/10/31 01:06:16;;;;;;;42.88;24.33;;;;;;;1.93;70.31;94060.31;5090812;28;20096;-53
2021/10/31 01:09:04;;;;;;;54.28;27.95;;;;;;;2.09;70.04;94059.75;5090821;28;20027;-54
2021/10/31 01:11:49;;;;;;;72.43;36.83;;;;;;;2.24;68.38;94058.44;5072776;28;20028;-53
2021/10/31 01:14:32;;;;;;;52.45;28.30;;;;;;;2.18;69.20;94060.34;5090790;28;20032;-50
2021/10/31 01:17:10;;;;;;;51.88;28.85;;;;;;;1.94;70.00;94038.06;5090754;28;20077;-50
2021/10/31 01:19:57;;;;;;;57.70;30.13;;;;;;;2.29;69.84;94054.28;5090766;28;20024;-49
2021/10/31 01:22:50;;;;;;;58.75;30.45;;;;;;;2.44;69.03;94063.09;5072783;28;20095;-54
2021/10/31 01:25:35;;;;;;;65.30;33.22;;;;;;;2.40;69.52;94051.66;5090579;28;20024;-50
2021/10/31 01:28:26;;;;;;;46.85;24.25;;;;;;;2.43;69.06;94058.84;5090619;28;20417;-52
2021/10/31 01:31:19;;;;;;;42.00;23.10;;;;;;;2.50;68.36;94052.97;5063818;28;20028;-54
2021/10/31 01:33:59;;;;;;;33.42;19.75;;;;;;;2.23;69.70;94051.47;5071345;28;20033;-49
2021/10/31 01:36:47;;;;;;;25.55;17.60;;;;;;;2.22;70.11;94049.25;5072581;28;20038;-49
2021/10/31 01:39:18;;;;;;;33.33;19.98;;;;;;;2.29;69.36;94049.56;5090257;28;20031;-49
2021/10/31 01:41:59;;;;;;;72.05;36.92;;;;;;;2.37;69.44;94038.22;5079811;28;20032;-50
2021/10/31 01:44:31;;;;;;;39.55;23.23;;;;;;;2.23;69.17;94042.56;5052428;28;20038;-51
2021/10/31 01:47:15;;;;;;;36.50;21.98;;;;;;;2.48;68.41;94035.59;5078449;28;20011;-49
2021/10/31 01:49:56;;;;;;;43.55;24.65;;;;;;;2.38;69.37;94009.75;5092318;28;20024;-49
2021/10/31 01:52:32;;;;;;;42.55;24.30;;;;;;;2.40;69.65;94026.38;5110481;28;20106;-52
2021/10/31 01:55:07;;;;;;;43.80;25.67;;;;;;;2.18;70.26;93983.34;5096322;28;20482;-49
2021/10/31 01:57:37;;;;;;;46.05;24.50;;;;;;;2.48;70.66;94028.19;5096614;28;20028;-47
2021/10/31 02:00:08;;;;;;;40.33;23.17;;;;;;;2.58;70.06;94024.03;5114436;28;20509;-49
2021/10/31 02:02:37;;;;;;;34.47;21.58;;;;;;;2.54;69.67;94022.78;5114780;28;20050;-47
2021/10/31 02:05:04;;;;;;;35.30;23.13;;;;;;;2.38;70.89;94018.69;5096640;28;20026;-48
2021/10/31 02:07:30;;;;;;;39.53;26.05;;;;;;;2.62;70.74;94018.41;5096571;28;20106;-48
2021/10/31 02:09:57;;;;;;;42.45;24.48;;;;;;;2.50;70.52;94014.06;5096494;28;20153;-48
2021/10/31 02:12:24;;;;;;;38.45;22.90;;;;;;;2.53;70.57;94016.59;5096542;28;20035;-51
2021/10/31 02:14:51;;;;;;;31.15;20.98;;;;;;;2.59;70.87;94022.06;5096280;28;20084;-49
2021/10/31 02:17:17;;;;;;;32.25;20.75;;;;;;;2.69;70.22;94018.69;5096120;28;20022;-47
2021/10/31 02:19:44;;;;;;;40.05;22.83;;;;;;;2.89;70.18;94024.06;5096430;28;20389;-49
2021/10/31 02:22:15;;;;;;;37.72;22.65;;;;;;;2.76;70.61;94020.97;5114342;28;20115;-48
2021/10/31 02:24:41;;;;;;;33.55;22.63;;;;;;;2.81;70.46;94017.56;5114405;28;20023;-48
2021/10/31 02:27:14;;;;;;;43.08;23.92;;;;;;;2.66;71.27;94016.19;5104552;28;20428;-48
2021/10/31 02:29:55;;;;;;;38.78;22.00;;;;;;;2.66;71.82;94016.19;5075698;28;20036;-50
2021/10/31 02:32:22;;;;;;;38.28;21.80;;;;;;;2.79;71.50;94011.84;5093787;28;20028;-51
2021/10/31 02:34:48;;;;;;;33.33;21.23;;;;;;;2.86;70.94;94011.38;5093872;28;20030;-52
2021/10/31 02:37:14;;;;;;;32.20;21.08;;;;;;;2.84;70.93;94016.56;5093434;28;20039;-49
2021/10/31 02:39:40;;;;;;;30.02;21.02;;;;;;;2.93;71.05;94016.41;5093478;28;20020;-47
2021/10/31 02:42:05;;;;;;;32.38;21.92;;;;;;;2.83;70.83;93985.09;5093256;28;20035;-47
2021/10/31 02:44:31;;;;;;;30.55;18.75;;;;;;;2.71;71.18;93964.44;5093632;28;20032;-50
2021/10/31 02:46:57;;;;;;;30.92;20.27;;;;;;;3.00;71.33;94004.28;5092770;28;20429;-50
2021/10/31 02:49:23;;;;;;;31.02;19.08;;;;;;;3.12;70.24;93999.66;5074989;28;20063;-54
2021/10/31 02:51:59;;;;;;;28.13;17.90;;;;;;;3.07;71.27;94007.28;5082085;28;20386;-49
2021/10/31 02:54:40;;;;;;;33.05;19.60;;;;;;;3.19;70.85;94008.13;5069488;28;20052;-49
2021/10/31 02:57:17;;;;;;;33.72;20.88;;;;;;;3.31;70.15;94004.22;5085045;28;20468;-52
2021/10/31 02:59:43;;;;;;;38.08;23.05;;;;;;;3.39;70.16;94001.78;5078466;28;20028;-53
2021/10/31 03:02:10;;;;;;;36.90;24.08;;;;;;;3.24;70.92;94010.16;5064310;28;20552;-50
2021/10/31 03:04:37;;;;;;;32.45;22.67;;;;;;;3.44;71.07;94001.81;5063240;28;20032;-49
2021/10/31 03:07:04;;;;;;;34.15;22.88;;;;;;;3.27;71.04;93984.59;5080624;28;20039;-50
2021/10/31 03:09:29;;;;;;;35.65;21.95;;;;;;;3.29;72.03;94006.69;5083644;28;20094;-51
2021/10/31 03:12:02;;;;;;;36.35;22.25;;;;;;;3.36;71.86;94002.75;5082920;28;20409;-53
2021/10/31 03:14:28;;;;;;;31.60;20.27;;;;;;;3.44;71.88;94009.25;5078132;28;20070;-50
2021/10/31 03:16:54;;;;;;;35.47;23.20;;;;;;;3.42;72.29;93996.06;5072715;28;20020;-50
2021/10/31 03:19:20;;;;;;;38.28;24.23;;;;;;;3.48;71.42;93998.84;5072287;28;20490;-49
2021/10/31 03:21:45;;;;;;;39.88;25.10;;;;;;;3.43;71.90;94000.31;5072667;28;20032;-49
2021/10/31 03:24:11;;;;;;;32.47;22.33;;;;;;;3.51;71.79;93992.41;5088351;28;20046;-50
2021/10/31 03:26:36;;;;;;;32.78;22.95;;;;;;;3.50;72.29;93994.41;5092482;28;20035;-49
2021/10/31 03:29:02;;;;;;;37.05;23.73;;;;;;;3.42;73.01;93993.34;5092317;28;20036;-50
2021/10/31 03:31:27;;;;;;;35.83;23.05;;;;;;;3.55;72.20;93995.66;5092756;28;20028;-49
2021/10/31 03:33:53;;;;;;;39.60;25.40;;;;;;;3.67;72.21;93997.19;5092574;28;20026;-51
2021/10/31 03:36:18;;;;;;;33.42;22.92;;;;;;;3.64;72.08;93989.97;5092636;28;20024;-51
2021/10/31 03:38:43;;;;;;;38.80;25.80;;;;;;;3.66;72.11;93985.50;5092190;28;20028;-49
2021/10/31 03:41:09;;;;;;;45.13;27.80;;;;;;;3.81;71.57;93996.25;5092263;28;20103;-52
2021/10/31 03:43:34;;;;;;;40.58;26.80;;;;;;;3.76;71.68;93997.72;5092138;28;20024;-53
2021/10/31 03:46:00;;;;;;;40.70;25.55;;;;;;;3.72;72.13;93993.75;5092240;28;20020;-49
2021/10/31 03:48:25;;;;;;;39.55;24.92;;;;;;;3.76;71.96;93994.25;5112799;28;20389;-51
2021/10/31 03:50:51;;;;;;;35.88;23.50;;;;;;;3.81;71.75;93988.78;5112666;28;20077;-49
2021/10/31 03:53:16;;;;;;;33.28;20.45;;;;;;;3.84;71.97;93993.28;5112776;28;20036;-48
2021/10/31 03:55:42;;;;;;;35.53;23.65;;;;;;;3.70;71.12;93969.63;5112185;28;20421;-49
2021/10/31 03:58:07;;;;;;;38.08;24.13;;;;;;;3.89;71.31;93989.06;5112393;28;20024;-50
2021/10/31 04:00:33;;;;;;;30.50;20.92;;;;;;;4.04;70.09;93986.13;5112544;28;20407;-50
2021/10/31 04:02:59;;;;;;;39.28;25.45;;;;;;;3.98;70.93;93988.84;5112524;28;20036;-47
2021/10/31 04:05:24;;;;;;;50.63;31.42;;;;;;;4.01;71.32;93984.38;5112100;28;20035;-51
2021/10/31 04:07:50;;;;;;;34.53;22.90;;;;;;;4.01;71.11;93974.19;5112406;28;20084;-44
2021/10/31 04:10:16;;;;;;;33.13;22.08;;;;;;;4.06;71.44;93970.75;5112016;28;20032;-49
2021/10/31 04:12:41;;;;;;;31.83;22.15;;;;;;;3.95;71.43;93978.91;5110849;28;20028;-49
2021/10/31 04:15:07;;;;;;;33.03;20.80;;;;;;;3.91;71.48;93969.47;5111719;28;20049;-49
2021/10/31 04:17:33;;;;;;;34.55;22.65;;;;;;;4.09;71.18;93977.97;5110647;28;20076;-52
2021/10/31 04:20:00;;;;;;;31.83;22.15;;;;;;;4.13;71.33;93983.94;5099173;28;20032;-50
2021/10/31 04:22:28;;;;;;;31.50;21.13;;;;;;;4.05;71.70;93980.16;5091376;28;20035;-54
2021/10/31 04:24:54;;;;;;;33.33;22.27;;;;;;;4.10;72.02;93982.16;5091693;28;20024;-55
2021/10/31 04:27:19;;;;;;;31.98;22.20;;;;;;;3.82;72.63;93976.66;5091447;28;20493;-52
2021/10/31 04:29:45;;;;;;;30.33;20.95;;;;;;;3.93;72.97;93977.91;5091267;28;20036;-49
2021/10/31 04:32:10;;;;;;;30.73;20.58;;;;;;;3.98;72.73;93980.66;5091228;28;20028;-51
2021/10/31 04:34:36;;;;;;;35.70;22.55;;;;;;;4.02;72.49;93977.69;5091235;28;20024;-49
2021/10/31 04:37:02;;;;;;;35.15;23.48;;;;;;;4.12;72.64;93963.28;5091131;28;20032;-47
2021/10/31 04:51:02;;;;;;;71.85;31.77;;;;;;;4.95;69.96;93960.56;5128385;27;20610;-44
2021/10/31 04:53:27;;;;;;;40.40;25.90;;;;;;;4.97;69.97;93960.06;5128222;27;20110;-43
2021/10/31 04:55:53;;;;;;;29.45;21.00;;;;;;;4.88;69.42;93954.84;5128127;27;20027;-39
2021/10/31 04:58:18;;;;;;;32.70;21.88;;;;;;;4.79;70.21;93952.38;5107881;27;20028;-41
2021/10/31 05:00:43;;;;;;;34.28;22.35;;;;;;;4.83;69.90;93952.88;5123881;28;20110;-40
2021/10/31 05:03:09;;;;;;;37.38;24.23;;;;;;;4.52;71.23;93948.44;5127972;27;20023;-43
2021/10/31 05:05:35;;;;;;;40.13;24.35;;;;;;;4.70;71.08;93950.63;5128005;27;20024;-44
2021/10/31 05:08:01;;;;;;;41.47;25.00;;;;;;;4.60;71.02;93955.63;5128369;27;20035;-44
2021/10/31 05:10:27;;;;;;;52.13;32.17;;;;;;;4.67;70.86;93956.38;5128245;27;20403;-45
2021/10/31 05:12:53;;;;;;;50.20;30.55;;;;;;;4.63;70.98;93954.63;5128182;27;20403;-43
2021/10/31 05:15:19;;;;;;;44.00;28.63;;;;;;;4.56;71.82;93957.88;5127742;27;20019;-42
2021/10/31 05:17:45;;;;;;;42.78;28.10;;;;;;;4.61;71.93;93956.38;5128202;27;20031;-42
2021/10/31 05:20:12;;;;;;;45.22;29.35;;;;;;;4.42;73.21;93958.09;5128077;27;20015;-41
2021/10/31 05:22:38;;;;;;;58.08;38.65;;;;;;;4.44;72.81;93953.63;5128070;27;20408;-44
2021/10/31 05:25:06;;;;;;;66.68;41.05;;;;;;;4.43;73.13;93954.13;5127993;27;20031;-43
2021/10/31 05:27:32;;;;;;;52.50;33.55;;;;;;;4.52;73.26;93957.38;5127862;27;20474;-44
2021/10/31 05:29:57;;;;;;;54.65;34.33;;;;;;;4.61;72.76;93957.09;5127569;27;20015;-44
2021/10/31 05:32:24;;;;;;;58.97;39.20;;;;;;;4.74;72.04;93955.88;5127443;27;20031;-43
2021/10/31 05:34:50;;;;;;;82.50;50.28;;;;;;;4.76;72.22;93967.06;5127899;27;20050;-41
2021/10/31 05:37:15;;;;;;;64.40;39.17;;;;;;;4.79;72.47;93963.31;5111272;27;20496;-40
2021/10/31 05:39:41;;;;;;;54.28;35.35;;;;;;;4.72;72.67;93966.56;5107275;28;20020;-42
2021/10/31 05:42:06;;;;;;;59.38;39.85;;;;;;;4.72;73.07;93961.09;5107114;28;20024;-44
2021/10/31 05:44:32;;;;;;;52.85;34.97;;;;;;;4.69;72.55;93953.88;5106856;28;20032;-43
2021/10/31 05:46:57;;;;;;;54.30;34.17;;;;;;;4.76;72.62;93959.59;5106720;28;20020;-44
2021/10/31 05:49:23;;;;;;;58.47;35.60;;;;;;;4.91;72.21;93957.34;5123625;28;20065;-42
2021/10/31 05:51:48;;;;;;;79.53;47.22;;;;;;;4.88;72.45;93965.78;5114823;27;20020;-42
2021/10/31 05:54:14;;;;;;;80.90;47.45;;;;;;;5.05;72.27;93966.50;5113321;28;20435;-42
2021/10/31 06:09:11;;;;;;;80.75;52.88;;;;;;;6.26;68.00;93970.06;5128301;27;20880;-47
2021/10/31 06:11:36;;;;;;;92.88;55.70;;;;;;;6.12;68.45;93971.88;5128743;27;20107;-46
2021/10/31 06:14:02;;;;;;;141.55;78.18;;;;;;;6.06;69.33;93971.19;5127129;28;20442;-48
2021/10/31 06:16:27;;;;;;;253.60;121.78;;;;;;;5.88;70.06;93969.00;5087685;28;20099;-46
2021/10/31 06:18:53;;;;;;;230.50;107.15;;;;;;;5.99;70.10;93974.44;5086220;28;20500;-46
2021/10/31 06:21:18;;;;;;;195.20;96.50;;;;;;;5.95;70.11;93969.25;5086453;28;20077;-52
2021/10/31 06:23:44;;;;;;;158.07;79.25;;;;;;;5.93;70.01;93971.72;5087213;28;20035;-47
2021/10/31 06:26:09;;;;;;;114.97;62.05;;;;;;;6.06;69.78;93977.38;5087154;28;20016;-48
2021/10/31 06:28:35;;;;;;;103.88;57.92;;;;;;;6.09;69.84;93979.13;5098544;28;20110;-48
2021/10/31 06:31:00;;;;;;;133.48;74.80;;;;;;;6.17;69.68;93982.09;5089820;28;20119;-48
2021/10/31 06:33:26;;;;;;;105.72;58.67;;;;;;;6.18;69.93;93986.31;5090933;28;20020;-45
2021/10/31 06:35:52;;;;;;;139.25;73.70;;;;;;;6.26;70.29;93981.75;5087044;28;20024;-49
2021/10/31 06:38:17;;;;;;;116.60;61.50;;;;;;;6.27;69.98;93982.50;5086853;28;20065;-47
2021/10/31 06:40:43;;;;;;;111.38;64.38;;;;;;;6.37;70.17;93987.19;5087205;28;20028;-48
2021/10/31 06:43:08;;;;;;;104.47;56.42;;;;;;;6.27;70.56;93979.75;5086745;28;20021;-47
2021/10/31 06:45:33;;;;;;;93.90;54.05;;;;;;;6.38;70.73;93979.69;5097123;28;20016;-48
2021/10/31 06:48:01;;;;;;;102.20;59.33;;;;;;;6.43;70.76;93985.13;5097379;28;20014;-48
2021/10/31 06:50:27;;;;;;;88.80;50.80;;;;;;;6.52;70.33;93987.56;5097397;28;20020;-51
2021/10/31 06:52:52;;;;;;;76.70;45.50;;;;;;;6.58;70.40;93991.00;5095239;28;20016;-47
2021/10/31 06:55:18;;;;;;;74.55;45.22;;;;;;;6.65;70.00;93976.00;5093632;28;20031;-47
2021/10/31 06:57:43;;;;;;;90.47;50.55;;;;;;;6.75;70.32;93983.44;5086500;28;20016;-48
2021/10/31 07:00:10;;;;;;;109.47;58.17;;;;;;;6.82;69.71;93987.63;5086488;28;20051;-47
2021/10/31 07:02:35;;;;;;;74.95;42.25;;;;;;;6.95;69.09;93984.25;5086773;28;20062;-47
2021/10/31 07:05:01;;;;;;;64.22;36.25;;;;;;;6.85;68.98;93973.59;5086354;28;20530;-46
2021/10/31 07:07:27;;;;;;;58.63;36.10;;;;;;;7.04;69.06;93978.44;5093690;28;20043;-48
2021/10/31 07:09:52;;;;;;;51.67;27.65;;;;;;;7.11;68.68;93978.63;5082189;28;20497;-47
2021/10/31 07:12:17;;;;;;;66.80;32.83;;;;;;;7.12;68.58;93979.38;5078307;28;20044;-46
2021/10/31 07:14:43;;;;;;;63.17;37.25;;;;;;;7.20;68.54;93980.28;5079870;28;20038;-46
2021/10/31 07:17:08;;;;;;;82.32;41.65;;;;;;;7.30;68.25;93992.41;5080058;28;20017;-44
2021/10/31 07:19:34;;;;;;;59.83;36.55;;;;;;;7.37;68.86;93987.09;5077945;28;20036;-46
2021/10/31 07:22:00;;;;;;;55.13;30.75;;;;;;;7.33;68.85;93986.66;5078446;28;20078;-46
2021/10/31 07:24:25;;;;;;;57.28;32.40;;;;;;;7.27;68.40;93958.50;5077352;28;20027;-46
2021/10/31 07:26:51;;;;;;;42.03;29.17;;;;;;;7.57;68.07;93975.66;5079969;28;20162;-46
2021/10/31 07:29:16;;;;;;;44.42;23.08;;;;;;;7.60;68.74;93976.63;5080871;28;20041;-45
2021/10/31 07:31:43;;;;;;;38.42;27.40;;;;;;;7.50;68.68;93973.47;5088530;28;20028;-45
2021/10/31 07:34:10;;;;;;;46.78;29.63;;;;;;;7.67;68.83;93969.81;5088046;28;20488;-44
2021/10/31 07:36:37;;;;;;;44.35;29.38;;;;;;;7.71;68.92;93970.25;5089124;28;20066;-46
2021/10/31 07:39:03;;;;;;;44.78;27.42;;;;;;;7.84;68.40;93971.06;5087938;28;20055;-44
2021/10/31 07:41:29;;;;;;;44.28;26.17;;;;;;;7.93;68.12;93969.97;5088009;28;20062;-46
2021/10/31 07:43:54;;;;;;;33.20;24.33;;;;;;;8.04;67.79;93956.09;5087422;28;20024;-45
2021/10/31 07:46:23;;;;;;;36.65;25.88;;;;;;;8.14;67.85;93951.72;5087506;28;20040;-45
2021/10/31 07:48:49;;;;;;;41.05;27.60;;;;;;;8.16;67.87;93960.94;5086685;28;20352;-45
2021/10/31 07:51:15;;;;;;;46.20;31.42;;;;;;;8.19;67.29;93959.88;5085055;28;20032;-45
2021/10/31 07:53:42;;;;;;;63.67;39.05;;;;;;;8.19;67.71;93953.63;5085101;28;20065;-46
2021/10/31 07:56:11;;;;;;;59.92;35.65;;;;;;;8.30;66.91;93954.25;5085190;28;20039;-46
2021/10/31 07:58:37;;;;;;;56.00;36.65;;;;;;;8.38;66.68;93966.13;5085043;28;20169;-45
2021/10/31 08:01:03;;;;;;;37.70;27.08;;;;;;;8.47;65.76;93956.75;5086940;28;20154;-42
2021/10/31 08:03:29;;;;;;;39.33;26.63;;;;;;;8.61;65.36;93961.06;5089062;28;20043;-49
2021/10/31 08:05:54;;;;;;;45.30;26.83;;;;;;;8.70;65.25;93954.44;5087808;28;20032;-46
2021/10/31 08:08:22;;;;;;;43.67;31.08;;;;;;;8.67;65.08;93960.97;5087300;28;20052;-45
2021/10/31 08:10:48;;;;;;;45.42;32.40;;;;;;;8.71;65.04;93959.41;5089385;28;20042;-45
2021/10/31 08:13:26;;;;;;;42.67;30.92;;;;;;;8.81;64.40;93955.00;5089774;28;20028;-45
2021/10/31 08:15:53;;;;;;;48.28;34.72;;;;;;;8.89;65.17;93952.38;5089490;28;20085;-45
2021/10/31 08:18:18;;;;;;;102.85;54.90;;;;;;;8.94;65.55;93949.50;5089599;28;20044;-45
2021/10/31 08:20:44;;;;;;;76.85;47.25;;;;;;;9.08;65.39;93944.78;5088225;28;20108;-45
2021/10/31 08:23:10;;;;;;;85.03;47.80;;;;;;;9.07;63.90;93946.06;5069228;28;20108;-47
2021/10/31 08:25:36;;;;;;;59.65;37.80;;;;;;;9.10;65.36;93942.97;5069474;28;20028;-47
2021/10/31 08:28:03;;;;;;;55.92;31.73;;;;;;;9.00;64.94;93919.88;5069434;28;20678;-47
2021/10/31 08:30:33;;;;;;;34.72;24.02;;;;;;;9.18;63.29;93941.09;5069487;28;20029;-47
2021/10/31 08:33:06;;;;;;;26.70;14.27;;;;;;;9.23;62.10;93947.03;5079775;28;20032;-46
2021/10/31 08:35:32;;;;;;;33.08;19.23;;;;;;;9.21;62.34;93939.28;5069301;28;20556;-45
2021/10/31 08:37:57;;;;;;;21.38;15.05;;;;;;;9.35;62.80;93940.06;5068663;28;20111;-45
2021/10/31 08:40:22;;;;;;;21.63;14.25;;;;;;;9.48;62.61;93942.81;5069118;28;20043;-46
2021/10/31 08:42:48;;;;;;;27.25;16.70;;;;;;;9.63;62.41;93934.75;5071283;28;20063;-47
2021/10/31 08:45:13;;;;;;;23.80;16.60;;;;;;;9.77;62.83;93936.97;5083041;28;20062;-45
2021/10/31 08:47:39;;;;;;;21.58;16.30;;;;;;;9.82;63.13;93932.63;5089195;28;20073;-47
2021/10/31 08:50:05;;;;;;;25.45;16.48;;;;;;;9.87;61.87;93926.25;5089109;28;20115;-45
2021/10/31 08:52:31;;;;;;;28.50;13.05;;;;;;;9.97;59.75;93923.78;5089197;28;20032;-44
2021/10/31 08:54:57;;;;;;;14.63;10.27;;;;;;;10.02;58.86;93926.44;5089330;28;20412;-42
2021/10/31 08:57:23;;;;;;;12.77;8.27;;;;;;;9.87;58.79;93898.69;5085600;28;20500;-44
2021/10/31 08:59:48;;;;;;;8.18;6.82;;;;;;;10.09;57.81;93914.72;5076101;28;20035;-50
2021/10/31 09:02:14;;;;;;;8.55;6.55;;;;;;;10.07;57.69;93917.28;5078574;28;20025;-43
2021/10/31 09:04:40;;;;;;;12.30;7.65;;;;;;;10.12;57.54;93913.72;5078698;28;20024;-48
2021/10/31 09:07:14;;;;;;;11.63;8.00;;;;;;;10.19;58.15;93918.56;5075496;28;20067;-53
2021/10/31 09:09:39;;;;;;;8.90;7.47;;;;;;;10.24;57.42;93912.19;5068398;28;20421;-68
2021/10/31 09:12:05;;;;;;;10.77;7.07;;;;;;;10.08;56.81;93924.31;5068254;28;20028;-39
2021/10/31 09:14:31;;;;;;;10.38;7.00;;;;;;;10.09;56.56;93911.97;5068242;28;20032;-41
2021/10/31 09:16:56;;;;;;;10.48;6.47;;;;;;;10.14;56.56;93908.41;5068619;28;20041;-43
2021/10/31 09:19:22;;;;;;;9.20;6.55;;;;;;;10.29;55.79;93911.31;5067409;28;20101;-42
2021/10/31 09:21:47;;;;;;;11.68;8.15;;;;;;;10.33;58.30;93903.44;5076596;28;20040;-45
2021/10/31 09:24:13;;;;;;;11.82;7.18;;;;;;;10.38;56.81;93899.81;5087456;28;20034;-47
2021/10/31 09:26:38;;;;;;;11.93;8.20;;;;;;;10.42;57.29;93903.00;5088407;28;20031;-47
2021/10/31 09:29:04;;;;;;;8.23;6.20;;;;;;;10.34;55.64;93906.94;5088149;28;20089;-45
2021/10/31 09:31:29;;;;;;;8.88;6.80;;;;;;;10.22;55.34;93873.34;5088073;28;20036;-45
2021/10/31 09:33:56;;;;;;;9.88;6.32;;;;;;;10.36;54.26;93902.38;5088429;28;20111;-46
2021/10/31 09:36:21;;;;;;;8.48;5.93;;;;;;;10.41;55.14;93898.03;5088051;28;20034;-45
2021/10/31 09:38:48;;;;;;;9.32;7.03;;;;;;;10.33;54.05;93886.88;5088250;28;20023;-42
2021/10/31 09:41:14;;;;;;;9.88;6.88;;;;;;;10.59;54.69;93889.53;5088534;28;20028;-45
2021/10/31 09:43:52;;;;;;;9.30;6.00;;;;;;;10.87;51.65;93885.38;5088456;28;20424;-46
2021/10/31 09:46:18;;;;;;;9.25;5.78;;;;;;;10.92;51.33;93881.72;5088963;28;20040;-46
2021/10/31 09:48:44;;;;;;;7.38;5.50;;;;;;;10.97;52.17;93884.34;5088837;28;20031;-45
2021/10/31 09:51:09;;;;;;;12.07;7.18;;;;;;;10.80;51.89;93875.75;5088098;28;20462;-45
2021/10/31 09:53:35;;;;;;;7.85;5.38;;;;;;;10.45;51.55;93849.47;5088293;28;20101;-44
2021/10/31 09:56:02;;;;;;;8.02;6.70;;;;;;;10.54;52.89;93875.88;5088042;28;20063;-46
2021/10/31 09:58:40;;;;;;;6.65;5.47;;;;;;;10.53;52.60;93869.59;5082737;28;20043;-45
2021/10/31 10:01:29;;;;;;;7.80;5.28;;;;;;;10.49;51.87;93860.94;5069083;28;20121;-50
2021/10/31 10:03:56;;;;;;;6.72;5.50;;;;;;;10.54;51.68;93854.53;5073482;28;20028;-46
2021/10/31 10:06:32;;;;;;;9.35;6.25;;;;;;;10.61;53.34;93856.59;5089588;28;20043;-47
2021/10/31 10:09:10;;;;;;;6.85;5.53;;;;;;;10.33;51.20;93856.53;5079043;28;20055;-48
2021/10/31 10:11:41;;;;;;;5.20;4.60;;;;;;;10.44;51.66;93839.69;5085336;28;20092;-46
2021/10/31 10:14:07;;;;;;;6.53;5.40;;;;;;;10.49;51.21;93843.63;5085105;28;20036;-46
2021/10/31 10:16:33;;;;;;;7.15;5.40;;;;;;;10.52;51.00;93839.78;5083849;28;20063;-47
2021/10/31 10:18:58;;;;;;;6.65;5.68;;;;;;;10.42;52.18;93816.69;5070031;28;20425;-47
2021/10/31 10:21:24;;;;;;;8.50;6.40;;;;;;;10.66;51.68;93841.19;5071230;28;20020;-48
2021/10/31 10:24:01;;;;;;;8.63;5.88;;;;;;;10.70;51.55;93836.06;5085657;28;20107;-46
2021/10/31 10:26:34;;;;;;;10.98;5.30;;;;;;;10.75;51.63;93829.66;5085044;28;20031;-47
2021/10/31 10:29:21;;;;;;;10.45;7.25;;;;;;;10.65;52.69;93834.19;5086166;28;20102;-47
2021/10/31 10:31:49;;;;;;;9.45;5.35;;;;;;;10.72;53.49;93835.53;5084987;28;20439;-46
2021/10/31 10:34:15;;;;;;;9.85;6.90;;;;;;;10.71;52.89;93823.75;5083373;28;20115;-48
2021/10/31 10:36:44;;;;;;;8.15;6.35;;;;;;;10.76;51.83;93819.38;5076144;28;20028;-46
2021/10/31 10:39:15;;;;;;;8.38;6.78;;;;;;;10.85;53.56;93822.38;5078103;28;20484;-48
2021/10/31 10:41:43;;;;;;;19.50;10.27;;;;;;;10.90;52.41;93820.75;5067757;28;20036;-46
2021/10/31 10:44:15;;;;;;;23.02;7.80;;;;;;;10.93;53.45;93811.38;5068922;28;20115;-48
2021/10/31 10:46:41;;;;;;;8.32;6.10;;;;;;;10.86;53.43;93812.81;5073030;28;20162;-47
2021/10/31 10:49:06;;;;;;;10.65;7.00;;;;;;;10.98;52.39;93807.75;5077061;28;20028;-48
2021/10/31 10:51:32;;;;;;;11.23;7.78;;;;;;;11.16;53.85;93806.72;5079264;28;20077;-47
2021/10/31 10:54:12;;;;;;;8.85;6.63;;;;;;;11.41;53.60;93796.75;5076224;28;20133;-47
2021/10/31 10:57:00;;;;;;;9.32;6.05;;;;;;;11.69;51.18;93784.91;5077669;28;20412;-47
2021/10/31 10:59:27;;;;;;;14.85;7.68;;;;;;;11.67;51.12;93782.69;5076164;28;20469;-47
2021/10/31 11:02:09;;;;;;;11.65;9.23;;;;;;;11.58;51.48;93787.97;5070984;28;20549;-49
2021/10/31 11:04:36;;;;;;;10.55;8.07;;;;;;;11.45;51.23;93783.31;5071599;28;20475;-46
2021/10/31 11:07:05;;;;;;;9.90;6.10;;;;;;;11.35;50.69;93779.56;5070831;28;20040;-46
2021/10/31 11:09:56;;;;;;;7.60;5.93;;;;;;;11.06;51.02;93778.88;5071069;28;20040;-49
2021/10/31 11:12:31;;;;;;;8.77;5.93;;;;;;;11.08;51.77;93776.31;5076586;28;20047;-49
2021/10/31 11:15:19;;;;;;;7.35;5.97;;;;;;;11.19;51.72;93778.75;5081555;28;20059;-47
2021/10/31 11:17:46;;;;;;;12.13;7.22;;;;;;;11.29;51.16;93762.41;5090494;28;20044;-49
2021/10/31 11:20:17;;;;;;;18.20;10.45;;;;;;;11.30;51.20;93775.66;5072300;28;20046;-47
2021/10/31 11:22:44;;;;;;;7.28;5.88;;;;;;;11.16;51.29;93763.25;5070589;28;20027;-48
2021/10/31 11:25:12;;;;;;;6.70;5.35;;;;;;;11.18;51.47;93757.19;5069457;28;20086;-44
2021/10/31 11:27:39;;;;;;;16.13;11.02;;;;;;;11.08;53.16;93765.25;5070427;28;20028;-45
2021/10/31 11:30:06;;;;;;;10.15;6.50;;;;;;;11.09;52.38;93754.91;5069725;28;20040;-44
2021/10/31 11:32:31;;;;;;;13.30;6.97;;;;;;;10.96;52.41;93744.00;5088703;28;20035;-44
2021/10/31 11:34:59;;;;;;;12.00;7.90;;;;;;;10.97;52.28;93753.75;5107368;28;20024;-45
2021/10/31 11:37:28;;;;;;;8.27;6.30;;;;;;;10.75;53.05;93754.34;5102596;28;20027;-45
2021/10/31 11:39:57;;;;;;;8.00;7.07;;;;;;;10.74;53.12;93752.88;5098014;28;20032;-45
2021/10/31 11:42:23;;;;;;;;;;;;;;;11.85;51.05;93742.91;5102456;28;20488;-45
2021/10/31 11:44:58;;;;;;;8.55;5.47;;;;;;;12.99;47.27;93743.66;5090121;28;20017;-45
2021/10/31 11:47:29;;;;;;;7.63;5.60;;;;;;;13.76;44.32;93736.56;5090258;28;20031;-44
2021/10/31 11:50:10;;;;;;;6.40;5.75;;;;;;;13.78;45.19;93728.41;5094248;28;20867;-45
2021/10/31 11:52:52;;;;;;;14.70;6.85;;;;;;;14.27;43.52;93725.72;5088948;27;20059;-45
2021/10/31 11:55:29;;;;;;;66.07;14.10;;;;;;;14.99;42.30;93722.72;5092303;28;20107;-47